sensor_id;sensor_type;location;lat;lon;timestamp;pressure;altitude;pressure_sealevel;temperature;humidity
15914;BME280;8055;51.930;8.840;2023-01-05T00:01:10;75888.84;;;-145.72;100.00
15914;BME280;8055;51.930;8.840;2023-01-05T00:03:36;75899.19;;;-145.72;100.00
15914;BME280;8055;51.930;8.840;2023-01-05T00:06:09;75901.25;;;-145.72;100.00
15914;BME280;8055;51.930;8.840;2023-01-05T00:08:35;75903.31;;;-145.72;100.00
15914;BME280;8055;51.930;8.840;2023-01-05T00:11:05;75890.91;;;-145.72;100.00
15914;BME280;8055;51.930;8.840;2023-01-05T00:13:50;75888.84;;;-145.72;100.00
15914;BME280;8055;51.930;8.840;2023-01-05T00:16:34;75905.41;;;-145.72;100.00
15914;BME280;8055;51.930;8.840;2023-01-05T00:19:18;75909.53;;;-145.72;100.00
15914;BME280;8055;51.930;8.840;2023-01-05T00:22:12;75905.41;;;-145.72;100.00
15914;BME280;8055;51.930;8.840;2023-01-05T00:24:59;75909.53;;;-145.72;100.00
15914;BME280;8055;51.930;8.840;2023-01-05T00:27:25;75928.16;;;-145.72;100.00
15914;BME280;8055;51.930;8.840;2023-01-05T00:29:51;75911.59;;;-145.72;100.00
15914;BME280;8055;51.930;8.840;2023-01-05T00:32:16;75907.47;;;-145.72;100.00
15914;BME280;8055;51.930;8.840;2023-01-05T00:34:41;75915.75;;;-145.72;100.00
15914;BME280;8055;51.930;8.840;2023-01-05T00:37:07;75919.88;;;-145.72;100.00
15914;BME280;8055;51.930;8.840;2023-01-05T00:39:32;75919.88;;;-145.72;100.00
15914;BME280;8055;51.930;8.840;2023-01-05T00:41:57;75919.88;;;-145.72;100.00
15914;BME280;8055;51.930;8.840;2023-01-05T00:44:23;75919.88;;;-145.72;100.00
15914;BME280;8055;51.930;8.840;2023-01-05T00:46:49;75928.16;;;-145.72;100.00
15914;BME280;8055;51.930;8.840;2023-01-05T00:49:14;75932.28;;;-145.72;100.00
15914;BME280;8055;51.930;8.840;2023-01-05T00:51:40;75932.28;;;-145.72;100.00
15914;BME280;8055;51.930;8.840;2023-01-05T00:54:05;75959.19;;;-145.72;100.00
15914;BME280;8055;51.930;8.840;2023-01-05T00:56:30;75955.06;;;-145.72;100.00
15914;BME280;8055;51.930;8.840;2023-01-05T00:58:56;75977.81;;;-145.72;100.00
15914;BME280;8055;51.930;8.840;2023-01-05T01:01:21;75971.63;;;-145.72;100.00
15914;BME280;8055;51.930;8.840;2023-01-05T01:03:46;75963.34;;;-145.72;100.00
15914;BME280;8055;51.930;8.840;2023-01-05T01:06:13;75975.75;;;-145.72;100.00
15914;BME280;8055;51.930;8.840;2023-01-05T01:08:38;75984.03;;;-145.72;100.00
15914;BME280;8055;51.930;8.840;2023-01-05T01:11:07;75988.16;;;-145.72;100.00
15914;BME280;8055;51.930;8.840;2023-01-05T01:13:34;75994.38;;;-145.72;100.00
15914;BME280;8055;51.930;8.840;2023-01-05T01:16:08;76015.06;;;-145.72;100.00
15914;BME280;8055;51.930;8.840;2023-01-05T01:18:34;76029.56;;;-145.72;100.00
15914;BME280;8055;51.930;8.840;2023-01-05T01:21:00;76041.97;;;-145.72;100.00
15914;BME280;8055;51.930;8.840;2023-01-05T01:23:26;76048.19;;;-145.72;100.00
15914;BME280;8055;51.930;8.840;2023-01-05T01:25:52;76060.59;;;-145.72;100.00
15914;BME280;8055;51.930;8.840;2023-01-05T01:28:17;76064.72;;;-145.72;100.00
15914;BME280;8055;51.930;8.840;2023-01-05T01:30:43;76048.19;;;-145.72;100.00
15914;BME280;8055;51.930;8.840;2023-01-05T01:33:08;76050.25;;;-145.72;100.00
15914;BME280;8055;51.930;8.840;2023-01-05T01:35:36;76060.59;;;-145.72;100.00
15914;BME280;8055;51.930;8.840;2023-01-05T01:38:01;76050.25;;;-145.72;100.00
15914;BME280;8055;51.930;8.840;2023-01-05T01:40:27;76046.09;;;-145.72;100.00
15914;BME280;8055;51.930;8.840;2023-01-05T01:42:53;76035.75;;;-145.72;100.00
15914;BME280;8055;51.930;8.840;2023-01-05T01:45:22;76041.97;;;-145.72;100.00
15914;BME280;8055;51.930;8.840;2023-01-05T01:47:55;76029.56;;;-145.72;100.00
15914;BME280;8055;51.930;8.840;2023-01-05T01:50:30;76027.47;;;-145.72;100.00
15914;BME280;8055;51.930;8.840;2023-01-05T01:53:02;76031.63;;;-145.72;100.00
15914;BME280;8055;51.930;8.840;2023-01-05T01:55:30;76019.22;;;-145.72;100.00
15914;BME280;8055;51.930;8.840;2023-01-05T01:57:56;76013.00;;;-145.72;100.00
15914;BME280;8055;51.930;8.840;2023-01-05T02:00:22;76019.22;;;-145.72;100.00
15914;BME280;8055;51.930;8.840;2023-01-05T02:02:50;76023.34;;;-145.72;100.00
15914;BME280;8055;51.930;8.840;2023-01-05T02:05:19;76027.47;;;-145.72;100.00
15914;BME280;8055;51.930;8.840;2023-01-05T02:07:46;76037.84;;;-145.72;100.00
15914;BME280;8055;51.930;8.840;2023-01-05T02:10:16;76039.91;;;-145.72;100.00
15914;BME280;8055;51.930;8.840;2023-01-05T02:13:09;76048.19;;;-145.72;100.00
15914;BME280;8055;51.930;8.840;2023-01-05T02:18:43;76019.22;;;-145.72;100.00
15914;BME280;8055;51.930;8.840;2023-01-05T02:24:41;76029.56;;;-145.72;100.00
15914;BME280;8055;51.930;8.840;2023-01-05T02:32:28;76021.28;;;-145.72;100.00
15914;BME280;8055;51.930;8.840;2023-01-05T02:35:02;76013.00;;;-145.72;100.00
15914;BME280;8055;51.930;8.840;2023-01-05T02:37:41;75994.38;;;-145.72;100.00
15914;BME280;8055;51.930;8.840;2023-01-05T02:40:22;75996.44;;;-145.72;100.00
15914;BME280;8055;51.930;8.840;2023-01-05T02:42:50;76000.59;;;-145.72;100.00
15914;BME280;8055;51.930;8.840;2023-01-05T02:45:20;75996.44;;;-145.72;100.00
15914;BME280;8055;51.930;8.840;2023-01-05T02:47:46;76000.59;;;-145.72;100.00
15914;BME280;8055;51.930;8.840;2023-01-05T02:55:17;76035.75;;;-145.72;100.00
15914;BME280;8055;51.930;8.840;2023-01-05T02:57:57;76044.03;;;-145.72;100.00
15914;BME280;8055;51.930;8.840;2023-01-05T03:00:28;76046.09;;;-145.72;100.00
15914;BME280;8055;51.930;8.840;2023-01-05T03:05:55;76070.94;;;-145.72;100.00
15914;BME280;8055;51.930;8.840;2023-01-05T03:08:22;76060.59;;;-145.72;100.00
15914;BME280;8055;51.930;8.840;2023-01-05T03:11:08;76068.88;;;-145.72;100.00
15914;BME280;8055;51.930;8.840;2023-01-05T03:16:35;76081.28;;;-145.72;100.00
15914;BME280;8055;51.930;8.840;2023-01-05T03:19:04;76077.16;;;-145.72;100.00
15914;BME280;8055;51.930;8.840;2023-01-05T03:21:50;76068.88;;;-145.72;100.00
15914;BME280;8055;51.930;8.840;2023-01-05T03:24:36;76077.16;;;-145.72;100.00
15914;BME280;8055;51.930;8.840;2023-01-05T03:27:22;76083.34;;;-145.72;100.00
15914;BME280;8055;51.930;8.840;2023-01-05T03:30:08;76087.50;;;-145.72;100.00
15914;BME280;8055;51.930;8.840;2023-01-05T03:32:55;76099.91;;;-145.72;100.00
15914;BME280;8055;51.930;8.840;2023-01-05T03:35:45;76106.13;;;-145.72;100.00
15914;BME280;8055;51.930;8.840;2023-01-05T03:40:57;76101.97;;;-145.72;100.00
15914;BME280;8055;51.930;8.840;2023-01-05T03:43:24;76122.69;;;-145.72;100.00
15914;BME280;8055;51.930;8.840;2023-01-05T03:45:52;76095.78;;;-145.72;100.00
15914;BME280;8055;51.930;8.840;2023-01-05T03:48:18;76087.50;;;-145.72;100.00
15914;BME280;8055;51.930;8.840;2023-01-05T03:50:45;76101.97;;;-145.72;100.00
15914;BME280;8055;51.930;8.840;2023-01-05T03:53:11;76112.31;;;-145.72;100.00
15914;BME280;8055;51.930;8.840;2023-01-05T03:55:36;76101.97;;;-145.72;100.00
15914;BME280;8055;51.930;8.840;2023-01-05T03:58:02;76110.25;;;-145.72;100.00
15914;BME280;8055;51.930;8.840;2023-01-05T04:00:27;76106.13;;;-145.72;100.00
15914;BME280;8055;51.930;8.840;2023-01-05T04:02:53;76118.53;;;-145.72;100.00
15914;BME280;8055;51.930;8.840;2023-01-05T04:05:18;76122.69;;;-145.72;100.00
15914;BME280;8055;51.930;8.840;2023-01-05T04:07:44;76120.59;;;-145.72;100.00
15914;BME280;8055;51.930;8.840;2023-01-05T04:10:09;76116.47;;;-145.72;100.00
15914;BME280;8055;51.930;8.840;2023-01-05T04:12:34;76120.59;;;-145.72;100.00
15914;BME280;8055;51.930;8.840;2023-01-05T04:15:01;76112.31;;;-145.72;100.00
15914;BME280;8055;51.930;8.840;2023-01-05T04:17:27;76118.53;;;-145.72;100.00
15914;BME280;8055;51.930;8.840;2023-01-05T04:19:53;76135.09;;;-145.72;100.00
15914;BME280;8055;51.930;8.840;2023-01-05T04:22:18;76137.16;;;-145.72;100.00
15914;BME280;8055;51.930;8.840;2023-01-05T04:24:43;76128.88;;;-145.72;100.00
15914;BME280;8055;51.930;8.840;2023-01-05T04:27:09;76116.47;;;-145.72;100.00
15914;BME280;8055;51.930;8.840;2023-01-05T04:29:34;76137.16;;;-145.72;100.00
15914;BME280;8055;51.930;8.840;2023-01-05T04:31:59;76141.31;;;-145.72;100.00
15914;BME280;8055;51.930;8.840;2023-01-05T04:34:25;76149.56;;;-145.72;100.00
15914;BME280;8055;51.930;8.840;2023-01-05T04:36:50;76151.66;;;-145.72;100.00
15914;BME280;8055;51.930;8.840;2023-01-05T04:39:15;76151.66;;;-145.72;100.00
15914;BME280;8055;51.930;8.840;2023-01-05T04:41:41;76164.06;;;-145.72;100.00
15914;BME280;8055;51.930;8.840;2023-01-05T04:44:06;76170.28;;;-145.72;100.00
15914;BME280;8055;51.930;8.840;2023-01-05T04:46:32;76168.19;;;-145.72;100.00
15914;BME280;8055;51.930;8.840;2023-01-05T04:48:57;76164.06;;;-145.72;100.00
15914;BME280;8055;51.930;8.840;2023-01-05T04:51:23;76164.06;;;-145.72;100.00
15914;BME280;8055;51.930;8.840;2023-01-05T04:53:48;76155.78;;;-145.72;100.00
15914;BME280;8055;51.930;8.840;2023-01-05T04:56:14;76157.84;;;-145.72;100.00
15914;BME280;8055;51.930;8.840;2023-01-05T04:58:39;76166.13;;;-145.72;100.00
15914;BME280;8055;51.930;8.840;2023-01-05T05:01:05;76159.94;;;-145.72;100.00
15914;BME280;8055;51.930;8.840;2023-01-05T05:03:31;76170.28;;;-145.72;100.00
15914;BME280;8055;51.930;8.840;2023-01-05T05:05:56;76159.94;;;-145.72;100.00
15914;BME280;8055;51.930;8.840;2023-01-05T05:08:21;76157.84;;;-145.72;100.00
15914;BME280;8055;51.930;8.840;2023-01-05T05:10:47;76159.94;;;-145.72;100.00
15914;BME280;8055;51.930;8.840;2023-01-05T05:13:12;76172.34;;;-145.72;100.00
15914;BME280;8055;51.930;8.840;2023-01-05T05:15:37;76172.34;;;-145.72;100.00
15914;BME280;8055;51.930;8.840;2023-01-05T05:18:03;76176.47;;;-145.72;100.00
15914;BME280;8055;51.930;8.840;2023-01-05T05:20:28;76168.19;;;-145.72;100.00
15914;BME280;8055;51.930;8.840;2023-01-05T05:22:53;76172.34;;;-145.72;100.00
15914;BME280;8055;51.930;8.840;2023-01-05T05:25:18;76162.00;;;-145.72;100.00
15914;BME280;8055;51.930;8.840;2023-01-05T05:27:44;76164.06;;;-145.72;100.00
15914;BME280;8055;51.930;8.840;2023-01-05T05:30:09;76178.56;;;-145.72;100.00
15914;BME280;8055;51.930;8.840;2023-01-05T05:32:35;76166.13;;;-145.72;100.00
15914;BME280;8055;51.930;8.840;2023-01-05T05:35:00;76164.06;;;-145.72;100.00
15914;BME280;8055;51.930;8.840;2023-01-05T05:37:26;76172.34;;;-145.72;100.00
15914;BME280;8055;51.930;8.840;2023-01-05T05:39:51;76176.47;;;-145.72;100.00
15914;BME280;8055;51.930;8.840;2023-01-05T05:42:16;76176.47;;;-145.72;100.00
15914;BME280;8055;51.930;8.840;2023-01-05T05:44:42;76184.75;;;-145.72;100.00
15914;BME280;8055;51.930;8.840;2023-01-05T05:47:07;76186.81;;;-145.72;100.00
15914;BME280;8055;51.930;8.840;2023-01-05T05:49:32;76172.34;;;-145.72;100.00
15914;BME280;8055;51.930;8.840;2023-01-05T05:51:58;76178.56;;;-145.72;100.00
15914;BME280;8055;51.930;8.840;2023-01-05T05:54:23;76174.41;;;-145.72;100.00
15914;BME280;8055;51.930;8.840;2023-01-05T05:56:49;76172.34;;;-145.72;100.00
15914;BME280;8055;51.930;8.840;2023-01-05T05:59:14;76172.34;;;-145.72;100.00
15914;BME280;8055;51.930;8.840;2023-01-05T06:01:39;76176.47;;;-145.72;100.00
15914;BME280;8055;51.930;8.840;2023-01-05T06:04:04;76180.63;;;-145.72;100.00
15914;BME280;8055;51.930;8.840;2023-01-05T06:06:30;76172.34;;;-145.72;100.00
15914;BME280;8055;51.930;8.840;2023-01-05T06:08:55;76186.81;;;-145.72;100.00
15914;BME280;8055;51.930;8.840;2023-01-05T06:11:21;76197.19;;;-145.72;100.00
15914;BME280;8055;51.930;8.840;2023-01-05T06:13:46;76190.97;;;-145.72;100.00
15914;BME280;8055;51.930;8.840;2023-01-05T06:16:13;76201.31;;;-145.72;100.00
15914;BME280;8055;51.930;8.840;2023-01-05T06:18:39;76205.44;;;-145.72;100.00
15914;BME280;8055;51.930;8.840;2023-01-05T06:21:04;76211.66;;;-145.72;100.00
15914;BME280;8055;51.930;8.840;2023-01-05T06:23:30;76207.53;;;-145.72;100.00
15914;BME280;8055;51.930;8.840;2023-01-05T06:25:55;76195.09;;;-145.72;100.00
15914;BME280;8055;51.930;8.840;2023-01-05T06:28:21;76201.31;;;-145.72;100.00
15914;BME280;8055;51.930;8.840;2023-01-05T06:30:46;76217.88;;;-145.72;100.00
15914;BME280;8055;51.930;8.840;2023-01-05T06:33:12;76228.22;;;-145.72;100.00
15914;BME280;8055;51.930;8.840;2023-01-05T06:35:37;76234.44;;;-145.72;100.00
15914;BME280;8055;51.930;8.840;2023-01-05T06:38:03;76217.88;;;-145.72;100.00
15914;BME280;8055;51.930;8.840;2023-01-05T06:40:28;76232.34;;;-145.72;100.00
15914;BME280;8055;51.930;8.840;2023-01-05T06:42:54;76250.97;;;-145.72;100.00
15914;BME280;8055;51.930;8.840;2023-01-05T06:45:19;76228.22;;;-145.72;100.00
15914;BME280;8055;51.930;8.840;2023-01-05T06:47:45;76242.72;;;-145.72;100.00
15914;BME280;8055;51.930;8.840;2023-01-05T06:50:10;76253.06;;;-145.72;100.00
15914;BME280;8055;51.930;8.840;2023-01-05T06:52:36;76257.19;;;-145.72;100.00
15914;BME280;8055;51.930;8.840;2023-01-05T06:55:08;76257.19;;;-145.72;100.00
15914;BME280;8055;51.930;8.840;2023-01-05T06:57:33;76273.75;;;-145.72;100.00
15914;BME280;8055;51.930;8.840;2023-01-05T07:00:04;76267.53;;;-145.72;100.00
15914;BME280;8055;51.930;8.840;2023-01-05T07:02:30;76261.34;;;-145.72;100.00
15914;BME280;8055;51.930;8.840;2023-01-05T07:04:56;76263.41;;;-145.72;100.00
15914;BME280;8055;51.930;8.840;2023-01-05T07:07:21;76271.69;;;-145.72;100.00
15914;BME280;8055;51.930;8.840;2023-01-05T07:09:46;76275.81;;;-145.72;100.00
15914;BME280;8055;51.930;8.840;2023-01-05T07:12:14;76273.75;;;-145.72;100.00
15914;BME280;8055;51.930;8.840;2023-01-05T07:14:39;76263.41;;;-145.72;100.00
15914;BME280;8055;51.930;8.840;2023-01-05T07:17:04;76271.69;;;-145.72;100.00
15914;BME280;8055;51.930;8.840;2023-01-05T07:19:30;76284.09;;;-145.72;100.00
15914;BME280;8055;51.930;8.840;2023-01-05T07:21:56;76279.97;;;-145.72;100.00
15914;BME280;8055;51.930;8.840;2023-01-05T07:24:22;76282.03;;;-145.72;100.00
15914;BME280;8055;51.930;8.840;2023-01-05T07:26:47;76279.97;;;-145.72;100.00
15914;BME280;8055;51.930;8.840;2023-01-05T07:29:12;76284.09;;;-145.72;100.00
15914;BME280;8055;51.930;8.840;2023-01-05T07:31:38;76286.16;;;-145.72;100.00
15914;BME280;8055;51.930;8.840;2023-01-05T07:34:03;76288.22;;;-145.72;100.00
15914;BME280;8055;51.930;8.840;2023-01-05T07:36:28;76273.75;;;-145.72;100.00
15914;BME280;8055;51.930;8.840;2023-01-05T07:38:54;76284.09;;;-145.72;100.00
15914;BME280;8055;51.930;8.840;2023-01-05T07:41:19;76288.22;;;-145.72;100.00
15914;BME280;8055;51.930;8.840;2023-01-05T07:43:48;76298.59;;;-145.72;100.00
15914;BME280;8055;51.930;8.840;2023-01-05T07:46:14;76298.59;;;-145.72;100.00
15914;BME280;8055;51.930;8.840;2023-01-05T07:48:40;76292.38;;;-145.72;100.00
15914;BME280;8055;51.930;8.840;2023-01-05T07:51:06;76294.44;;;-145.72;100.00
15914;BME280;8055;51.930;8.840;2023-01-05T07:53:33;76311.00;;;-145.72;100.00
15914;BME280;8055;51.930;8.840;2023-01-05T07:56:01;76317.22;;;-145.72;100.00
15914;BME280;8055;51.930;8.840;2023-01-05T07:58:28;76308.94;;;-145.72;100.00
15914;BME280;8055;51.930;8.840;2023-01-05T08:00:54;76306.84;;;-145.72;100.00
15914;BME280;8055;51.930;8.840;2023-01-05T08:03:19;76300.66;;;-145.72;100.00
15914;BME280;8055;51.930;8.840;2023-01-05T08:05:45;76321.34;;;-145.72;100.00
15914;BME280;8055;51.930;8.840;2023-01-05T08:08:11;76302.72;;;-145.72;100.00
15914;BME280;8055;51.930;8.840;2023-01-05T08:10:41;76308.94;;;-145.72;100.00
15914;BME280;8055;51.930;8.840;2023-01-05T08:13:08;76319.28;;;-145.72;100.00
15914;BME280;8055;51.930;8.840;2023-01-05T08:15:54;76331.69;;;-145.72;100.00
15914;BME280;8055;51.930;8.840;2023-01-05T08:18:20;76327.56;;;-145.72;100.00
15914;BME280;8055;51.930;8.840;2023-01-05T08:20:53;76319.28;;;-145.72;100.00
15914;BME280;8055;51.930;8.840;2023-01-05T08:23:19;76325.47;;;-145.72;100.00
15914;BME280;8055;51.930;8.840;2023-01-05T08:25:45;76333.75;;;-145.72;100.00
15914;BME280;8055;51.930;8.840;2023-01-05T08:28:10;76331.69;;;-145.72;100.00
15914;BME280;8055;51.930;8.840;2023-01-05T08:30:35;76337.91;;;-145.72;100.00
15914;BME280;8055;51.930;8.840;2023-01-05T08:33:01;76325.47;;;-145.72;100.00
15914;BME280;8055;51.930;8.840;2023-01-05T08:35:26;76337.91;;;-145.72;100.00
15914;BME280;8055;51.930;8.840;2023-01-05T08:37:52;76346.19;;;-145.72;100.00
15914;BME280;8055;51.930;8.840;2023-01-05T08:40:17;76323.41;;;-145.72;100.00
15914;BME280;8055;51.930;8.840;2023-01-05T08:42:43;76321.34;;;-145.72;100.00
15914;BME280;8055;51.930;8.840;2023-01-05T08:45:12;76335.84;;;-145.72;100.00
15914;BME280;8055;51.930;8.840;2023-01-05T08:47:38;76342.03;;;-145.72;100.00
15914;BME280;8055;51.930;8.840;2023-01-05T08:50:03;76342.03;;;-145.72;100.00
15914;BME280;8055;51.930;8.840;2023-01-05T08:52:30;76331.69;;;-145.72;100.00
15914;BME280;8055;51.930;8.840;2023-01-05T08:54:55;76327.56;;;-145.72;100.00
15914;BME280;8055;51.930;8.840;2023-01-05T08:57:21;76337.91;;;-145.72;100.00
15914;BME280;8055;51.930;8.840;2023-01-05T08:59:46;76337.91;;;-145.72;100.00
15914;BME280;8055;51.930;8.840;2023-01-05T09:02:11;76342.03;;;-145.72;100.00
15914;BME280;8055;51.930;8.840;2023-01-05T09:04:37;76342.03;;;-145.72;100.00
15914;BME280;8055;51.930;8.840;2023-01-05T09:07:02;76348.25;;;-145.72;100.00
15914;BME280;8055;51.930;8.840;2023-01-05T09:09:27;76350.31;;;-145.72;100.00
15914;BME280;8055;51.930;8.840;2023-01-05T09:11:53;76356.53;;;-145.72;100.00
15914;BME280;8055;51.930;8.840;2023-01-05T09:14:18;76360.66;;;-145.72;100.00
15914;BME280;8055;51.930;8.840;2023-01-05T09:16:44;76358.59;;;-145.72;100.00
15914;BME280;8055;51.930;8.840;2023-01-05T09:19:10;76371.00;;;-145.72;100.00
15914;BME280;8055;51.930;8.840;2023-01-05T09:21:35;76368.94;;;-145.72;100.00
15914;BME280;8055;51.930;8.840;2023-01-05T09:24:04;76366.88;;;-145.72;100.00
15914;BME280;8055;51.930;8.840;2023-01-05T09:26:29;76366.88;;;-145.72;100.00
15914;BME280;8055;51.930;8.840;2023-01-05T09:28:54;76358.59;;;-145.72;100.00
15914;BME280;8055;51.930;8.840;2023-01-05T09:31:21;76354.47;;;-145.72;100.00
15914;BME280;8055;51.930;8.840;2023-01-05T09:33:47;76356.53;;;-145.72;100.00
15914;BME280;8055;51.930;8.840;2023-01-05T09:36:14;76346.19;;;-145.72;100.00
15914;BME280;8055;51.930;8.840;2023-01-05T09:38:40;76352.38;;;-145.72;100.00
15914;BME280;8055;51.930;8.840;2023-01-05T09:41:35;76344.09;;;-145.72;100.00
15914;BME280;8055;51.930;8.840;2023-01-05T09:44:05;76346.19;;;-145.72;100.00
15914;BME280;8055;51.930;8.840;2023-01-05T09:46:40;76350.31;;;-145.72;100.00
15914;BME280;8055;51.930;8.840;2023-01-05T09:49:12;76356.53;;;-145.72;100.00
15914;BME280;8055;51.930;8.840;2023-01-05T09:51:38;76373.09;;;-145.72;100.00
15914;BME280;8055;51.930;8.840;2023-01-05T09:54:04;76373.09;;;-145.72;100.00
15914;BME280;8055;51.930;8.840;2023-01-05T09:56:32;76375.16;;;-145.72;100.00
15914;BME280;8055;51.930;8.840;2023-01-05T09:59:18;76377.22;;;-145.72;100.00
15914;BME280;8055;51.930;8.840;2023-01-05T10:01:50;76375.16;;;-145.72;100.00
15914;BME280;8055;51.930;8.840;2023-01-05T10:04:27;76379.28;;;-145.72;100.00
15914;BME280;8055;51.930;8.840;2023-01-05T10:06:59;76391.72;;;-145.72;100.00
15914;BME280;8055;51.930;8.840;2023-01-05T10:09:30;76389.63;;;-145.72;100.00
15914;BME280;8055;51.930;8.840;2023-01-05T10:12:43;76395.84;;;-145.72;100.00
15914;BME280;8055;51.930;8.840;2023-01-05T10:15:20;76400.00;;;-145.72;100.00
15914;BME280;8055;51.930;8.840;2023-01-05T10:17:46;76400.00;;;-145.72;100.00
15914;BME280;8055;51.930;8.840;2023-01-05T10:20:22;76393.78;;;-145.72;100.00
15914;BME280;8055;51.930;8.840;2023-01-05T10:25:43;76400.00;;;-145.72;100.00
15914;BME280;8055;51.930;8.840;2023-01-05T10:28:33;76389.63;;;-145.72;100.00
15914;BME280;8055;51.930;8.840;2023-01-05T10:33:48;76402.06;;;-145.72;100.00
15914;BME280;8055;51.930;8.840;2023-01-05T10:36:34;76389.63;;;-145.72;100.00
15914;BME280;8055;51.930;8.840;2023-01-05T10:42:28;76402.06;;;-145.72;100.00
15914;BME280;8055;51.930;8.840;2023-01-05T10:44:58;76402.06;;;-145.72;100.00
15914;BME280;8055;51.930;8.840;2023-01-05T10:47:28;76397.91;;;-145.72;100.00
15914;BME280;8055;51.930;8.840;2023-01-05T10:49:54;76400.00;;;-145.72;100.00
15914;BME280;8055;51.930;8.840;2023-01-05T10:52:21;76395.84;;;-145.72;100.00
15914;BME280;8055;51.930;8.840;2023-01-05T10:57:32;76393.78;;;-145.72;100.00
15914;BME280;8055;51.930;8.840;2023-01-05T11:02:36;76393.78;;;-145.72;100.00
15914;BME280;8055;51.930;8.840;2023-01-05T11:05:06;76400.00;;;-145.72;100.00
15914;BME280;8055;51.930;8.840;2023-01-05T11:07:48;76391.72;;;-145.72;100.00
15914;BME280;8055;51.930;8.840;2023-01-05T11:10:38;76412.41;;;-145.72;100.00
15914;BME280;8055;51.930;8.840;2023-01-05T11:15:43;76416.53;;;-145.72;100.00
15914;BME280;8055;51.930;8.840;2023-01-05T11:18:24;76412.41;;;-145.72;100.00
15914;BME280;8055;51.930;8.840;2023-01-05T11:21:10;76418.63;;;-145.72;100.00
15914;BME280;8055;51.930;8.840;2023-01-05T11:23:41;76426.91;;;-145.72;100.00
15914;BME280;8055;51.930;8.840;2023-01-05T11:29:02;76422.75;;;-145.72;100.00
15914;BME280;8055;51.930;8.840;2023-01-05T11:52:51;76426.91;;;-145.72;100.00
15914;BME280;8055;51.930;8.840;2023-01-05T11:55:36;76420.69;;;-145.72;100.00
15914;BME280;8055;51.930;8.840;2023-01-05T11:58:21;76426.91;;;-145.72;100.00
15914;BME280;8055;51.930;8.840;2023-01-05T12:01:04;76420.69;;;-145.72;100.00
15914;BME280;8055;51.930;8.840;2023-01-05T12:06:50;76416.53;;;-145.72;100.00
15914;BME280;8055;51.930;8.840;2023-01-05T12:09:30;76428.97;;;-145.72;100.00
15914;BME280;8055;51.930;8.840;2023-01-05T12:31:28;76422.75;;;-145.72;100.00
15914;BME280;8055;51.930;8.840;2023-01-05T12:34:06;76412.41;;;-145.72;100.00
15914;BME280;8055;51.930;8.840;2023-01-05T12:37:00;76412.41;;;-145.72;100.00
15914;BME280;8055;51.930;8.840;2023-01-05T12:48:04;76416.53;;;-145.72;100.00
15914;BME280;8055;51.930;8.840;2023-01-05T12:50:37;76420.69;;;-145.72;100.00
15914;BME280;8055;51.930;8.840;2023-01-05T12:53:12;76418.63;;;-145.72;100.00
15914;BME280;8055;51.930;8.840;2023-01-05T12:55:47;76426.91;;;-145.72;100.00
15914;BME280;8055;51.930;8.840;2023-01-05T12:58:24;76439.31;;;-145.72;100.00
15914;BME280;8055;51.930;8.840;2023-01-05T13:00:53;76435.16;;;-145.72;100.00
15914;BME280;8055;51.930;8.840;2023-01-05T13:06:14;76439.31;;;-145.72;100.00
15914;BME280;8055;51.930;8.840;2023-01-05T13:08:46;76449.66;;;-145.72;100.00
15914;BME280;8055;51.930;8.840;2023-01-05T13:11:35;76447.59;;;-145.72;100.00
15914;BME280;8055;51.930;8.840;2023-01-05T13:14:06;76451.72;;;-145.72;100.00
15914;BME280;8055;51.930;8.840;2023-01-05T13:16:39;76453.78;;;-145.72;100.00
15914;BME280;8055;51.930;8.840;2023-01-05T13:19:19;76449.66;;;-145.72;100.00
15914;BME280;8055;51.930;8.840;2023-01-05T13:21:46;76460.00;;;-145.72;100.00
15914;BME280;8055;51.930;8.840;2023-01-05T13:24:16;76470.34;;;-145.72;100.00
15914;BME280;8055;51.930;8.840;2023-01-05T13:26:47;76470.34;;;-145.72;100.00
15914;BME280;8055;51.930;8.840;2023-01-05T13:29:22;76468.28;;;-145.72;100.00
15914;BME280;8055;51.930;8.840;2023-01-05T13:32:04;76474.50;;;-145.72;100.00
15914;BME280;8055;51.930;8.840;2023-01-05T13:55:56;76478.63;;;-145.72;100.00
15914;BME280;8055;51.930;8.840;2023-01-05T14:00:55;76482.78;;;-145.72;100.00
15914;BME280;8055;51.930;8.840;2023-01-05T14:03:53;76478.63;;;-145.72;100.00
15914;BME280;8055;51.930;8.840;2023-01-05T14:06:24;76491.03;;;-145.72;100.00
15914;BME280;8055;51.930;8.840;2023-01-05T14:08:55;76476.56;;;-145.72;100.00
15914;BME280;8055;51.930;8.840;2023-01-05T14:11:24;76476.56;;;-145.72;100.00
15914;BME280;8055;51.930;8.840;2023-01-05T14:21:57;76499.31;;;-145.72;100.00
15914;BME280;8055;51.930;8.840;2023-01-05T14:24:37;76497.25;;;-145.72;100.00
15914;BME280;8055;51.930;8.840;2023-01-05T14:27:11;76507.59;;;-145.72;100.00
15914;BME280;8055;51.930;8.840;2023-01-05T14:32:10;76497.25;;;-145.72;100.00
15914;BME280;8055;51.930;8.840;2023-01-05T14:34:44;76513.81;;;-145.72;100.00
15914;BME280;8055;51.930;8.840;2023-01-05T14:37:22;76522.09;;;-145.72;100.00
15914;BME280;8055;51.930;8.840;2023-01-05T14:39:49;76524.16;;;-145.72;100.00
15914;BME280;8055;51.930;8.840;2023-01-05T14:42:25;76526.22;;;-145.72;100.00
15914;BME280;8055;51.930;8.840;2023-01-05T14:44:59;76530.38;;;-145.72;100.00
15914;BME280;8055;51.930;8.840;2023-01-05T14:47:41;76528.31;;;-145.72;100.00
15914;BME280;8055;51.930;8.840;2023-01-05T14:50:36;76544.84;;;-145.72;100.00
15914;BME280;8055;51.930;8.840;2023-01-05T14:55:35;76555.22;;;-145.72;100.00
15914;BME280;8055;51.930;8.840;2023-01-05T14:58:11;76549.00;;;-145.72;100.00
15914;BME280;8055;51.930;8.840;2023-01-05T15:00:41;76549.00;;;-145.72;100.00
15914;BME280;8055;51.930;8.840;2023-01-05T15:03:25;76544.84;;;-145.72;100.00
15914;BME280;8055;51.930;8.840;2023-01-05T15:05:58;76551.06;;;-145.72;100.00
15914;BME280;8055;51.930;8.840;2023-01-05T15:22:39;76563.47;;;-145.72;100.00
15914;BME280;8055;51.930;8.840;2023-01-05T15:31:12;76561.41;;;-145.72;100.00